Time;durP1;ratioP1;P1;durP2;ratioP2;P2;SDS_P1;SDS_P2;PMS_P1;PMS_P2;Temp;Humidity;BMP_temperature;BMP_pressure;BME280_temperature;BME280_humidity;BME280_pressure;Samples;Min_cycle;Max_cycle;Signal;HPM_P1;HPM_P2
2021/05/16 00:02:23;;;;;;;;;;;;;;;21.97;48.59;100099.75;5022725;28;834;-59
2021/05/16 00:04:48;;;;;;;;;;;;;;;22.22;48.09;100101.66;5040041;28;744;-59
2021/05/16 00:07:14;;;;;;;;;;;;;;;22.34;47.66;100100.19;5040222;28;816;-59
2021/05/16 00:09:40;;;;;;;;;;;;;;;22.44;47.46;100096.25;5040566;28;721;-60
2021/05/16 00:12:06;;;;;;;;;;;;;;;22.64;47.03;100100.28;5039156;28;1010;-51
2021/05/16 00:14:31;;;;;;;;;;;;;;;22.56;46.86;100097.19;5038902;28;783;-53
2021/05/16 00:16:57;;;;;;;;;;;;;;;22.09;48.22;100090.75;5039593;28;1926;-52
2021/05/16 00:19:22;;;;;;;;;;;;;;;22.02;48.27;100086.56;5039225;28;814;-56
2021/05/16 00:21:48;;;;;;;;;;;;;;;21.73;49.24;100083.63;5040134;28;725;-54
2021/05/16 00:24:13;;;;;;;;;;;;;;;22.07;48.27;100088.31;5039900;28;756;-57
2021/05/16 00:26:39;;;;;;;;;;;;;;;22.33;47.55;100076.38;5038723;28;997;-57
2021/05/16 00:29:04;;;;;;;;;;;;;;;22.43;47.27;100070.53;5040045;28;951;-60
2021/05/16 00:31:30;;;;;;;;;;;;;;;22.51;47.27;100069.69;5039942;28;808;-58
2021/05/16 00:33:56;;;;;;;;;;;;;;;22.37;47.25;100078.22;5039651;28;1366;-56
2021/05/16 00:36:22;;;;;;;;;;;;;;;22.21;47.92;100075.09;5039629;28;1910;-58
2021/05/16 00:38:47;;;;;;;;;;;;;;;21.96;47.72;100074.00;5039245;28;1046;-59
2021/05/16 00:41:13;;;;;;;;;;;;;;;21.88;49.03;100069.28;5039099;28;936;-56
2021/05/16 00:43:38;;;;;;;;;;;;;;;22.11;48.18;100064.38;5039709;28;756;-60
2021/05/16 00:46:08;;;;;;;;;;;;;;;22.35;47.74;100069.41;5039386;28;811;-54
2021/05/16 00:48:34;;;;;;;;;;;;;;;22.61;46.85;100065.75;5038945;28;763;-55
2021/05/16 00:50:59;;;;;;;;;;;;;;;22.35;47.16;100074.13;5039535;28;779;-55
2021/05/16 00:53:25;;;;;;;;;;;;;;;22.13;48.03;100072.34;5021269;28;1090;-57
2021/05/16 00:55:51;;;;;;;;;;;;;;;22.01;47.62;100070.28;5038836;28;1890;-57
2021/05/16 00:58:17;;;;;;;;;;;;;;;21.70;49.28;100071.28;5038943;28;963;-57
2021/05/16 01:00:43;;;;;;;;;;;;;;;21.96;48.23;100071.22;5038372;28;752;-56
2021/05/16 01:03:15;;;;;;;;;;;;;;;22.11;48.12;100069.91;5021222;28;1111;-59
2021/05/16 01:05:44;;;;;;;;;;;;;;;22.33;47.60;100077.25;5038977;28;879;-59
2021/05/16 01:08:10;;;;;;;;;;;;;;;22.51;47.19;100072.47;5038855;28;744;-58
2021/05/16 01:10:35;;;;;;;;;;;;;;;22.62;47.01;100072.09;5038468;28;831;-58
2021/05/16 01:13:03;;;;;;;;;;;;;;;22.69;46.71;100059.34;5021259;28;1334;-58
2021/05/16 01:15:29;;;;;;;;;;;;;;;22.77;46.54;100068.75;5037631;28;1977;-59
2021/05/16 01:17:55;;;;;;;;;;;;;;;22.49;47.09;100066.41;5038042;28;799;-58
2021/05/16 01:20:25;;;;;;;;;;;;;;;22.13;48.11;100075.13;5021024;28;1301;-59
2021/05/16 01:22:53;;;;;;;;;;;;;;;21.98;48.16;100066.19;5021199;28;1171;-56
2021/05/16 01:25:19;;;;;;;;;;;;;;;21.69;49.52;100075.16;5038215;28;764;-58
2021/05/16 01:27:45;;;;;;;;;;;;;;;21.92;48.53;100061.94;5020253;28;1094;-58
2021/05/16 01:30:11;;;;;;;;;;;;;;;22.07;48.18;100060.63;5038366;28;721;-60
2021/05/16 01:32:36;;;;;;;;;;;;;;;22.32;47.54;100060.91;5038135;28;1136;-60
2021/05/16 01:35:02;;;;;;;;;;;;;;;22.48;47.15;100062.06;5038455;28;804;-58
2021/05/16 01:37:28;;;;;;;;;;;;;;;22.61;46.75;100064.91;5020513;28;1981;-56
2021/05/16 01:39:54;;;;;;;;;;;;;;;22.50;47.04;100056.19;5037929;28;1080;-56
2021/05/16 01:42:21;;;;;;;;;;;;;;;22.30;47.39;100060.41;5021700;28;1349;-56
2021/05/16 01:44:47;;;;;;;;;;;;;;;22.28;47.22;100055.22;5038163;28;752;-57
2021/05/16 01:47:13;;;;;;;;;;;;;;;22.19;46.88;100055.25;5037802;28;846;-57
2021/05/16 01:49:47;;;;;;;;;;;;;;;21.97;47.14;100049.91;5037981;28;831;-56
2021/05/16 01:52:13;;;;;;;;;;;;;;;21.96;46.99;100053.81;5038264;28;816;-57
2021/05/16 01:54:38;;;;;;;;;;;;;;;21.83;46.82;100063.94;5037436;28;736;-58
2021/05/16 01:57:05;;;;;;;;;;;;;;;21.83;47.13;100072.25;5037133;28;1957;-57
2021/05/16 01:59:30;;;;;;;;;;;;;;;21.88;48.15;100077.59;5038150;28;791;-56
2021/05/16 02:01:59;;;;;;;;;;;;;;;22.14;48.27;100062.91;5053334;28;1279;-56
2021/05/16 02:04:27;;;;;;;;;;;;;;;22.40;47.52;100065.66;5036830;28;1206;-58
2021/05/16 02:06:52;;;;;;;;;;;;;;;22.42;47.40;100059.78;5038146;28;755;-59
2021/05/16 02:09:18;;;;;;;;;;;;;;;22.53;47.16;100063.81;5036611;28;1158;-58
2021/05/16 02:11:44;;;;;;;;;;;;;;;22.58;46.91;100057.28;5036424;28;1114;-59
2021/05/16 02:14:12;;;;;;;;;;;;;;;22.49;47.02;100068.38;5036628;28;1105;-58
2021/05/16 02:16:38;;;;;;;;;;;;;;;22.34;47.37;100070.56;5036176;28;1914;-57
2021/05/16 02:19:10;;;;;;;;;;;;;;;21.97;48.05;100069.28;5036660;28;1215;-54
2021/05/16 02:21:39;;;;;;;;;;;;;;;22.01;47.55;100071.06;5036645;28;1219;-58
2021/05/16 02:24:05;;;;;;;;;;;;;;;21.94;47.40;100068.00;5052247;28;925;-58
2021/05/16 02:26:50;;;;;;;;;;;;;;;21.94;46.81;100064.41;5029743;28;1215;-60
2021/05/16 02:29:17;;;;;;;;;;;;;;;21.97;47.15;100063.75;5037575;28;796;-59
2021/05/16 02:31:43;;;;;;;;;;;;;;;21.91;47.77;100067.81;5036986;28;736;-59
2021/05/16 02:34:08;;;;;;;;;;;;;;;22.00;48.35;100066.66;5037257;28;1103;-57
2021/05/16 02:36:35;;;;;;;;;;;;;;;22.16;48.21;100066.16;5037514;28;1910;-56
2021/05/16 02:39:01;;;;;;;;;;;;;;;22.11;48.21;100072.69;5036784;28;1012;-54
2021/05/16 02:41:27;;;;;;;;;;;;;;;22.16;47.95;100067.00;5036957;28;1006;-54
2021/05/16 02:43:53;;;;;;;;;;;;;;;22.18;47.93;100067.47;5019838;28;1210;-58
2021/05/16 02:46:19;;;;;;;;;;;;;;;22.18;47.81;100063.88;5036802;28;788;-58
2021/05/16 02:48:45;;;;;;;;;;;;;;;22.33;47.68;100062.53;5019245;28;1240;-62
2021/05/16 02:51:11;;;;;;;;;;;;;;;22.25;47.61;100069.72;5037125;28;776;-59
2021/05/16 02:53:40;;;;;;;;;;;;;;;22.36;47.52;100064.69;5019003;28;1244;-59
2021/05/16 02:56:07;;;;;;;;;;;;;;;22.33;47.57;100059.75;5019300;28;1910;-58
2021/05/16 02:58:33;;;;;;;;;;;;;;;22.30;47.66;100066.78;5036699;28;958;-56
2021/05/16 03:00:59;;;;;;;;;;;;;;;22.23;48.01;100074.78;5019330;28;1151;-59
2021/05/16 03:03:31;;;;;;;;;;;;;;;22.19;47.98;100068.28;5019217;28;1229;-58
2021/05/16 03:06:00;;;;;;;;;;;;;;;21.93;49.02;100082.97;5019451;28;1003;-55
2021/05/16 03:08:27;;;;;;;;;;;;;;;21.63;49.98;100091.13;5018904;28;1328;-62
2021/05/16 03:10:53;;;;;;;;;;;;;;;21.32;49.42;100085.66;5036767;28;783;-53
2021/05/16 03:13:19;;;;;;;;;;;;;;;21.47;50.27;100085.19;5036266;28;1018;-59
2021/05/16 03:15:44;;;;;;;;;;;;;;;21.88;49.04;100089.50;5035868;28;1910;-58
2021/05/16 03:18:10;;;;;;;;;;;;;;;22.10;48.64;100084.91;5037006;28;768;-57
2021/05/16 03:20:39;;;;;;;;;;;;;;;22.20;48.07;100086.50;5019077;28;1094;-57
2021/05/16 03:23:05;;;;;;;;;;;;;;;22.38;47.76;100084.56;5018629;28;1305;-59
2021/05/16 03:25:35;;;;;;;;;;;;;;;22.48;47.42;100089.75;5017616;28;1210;-59
2021/05/16 03:28:00;;;;;;;;;;;;;;;22.53;47.27;100088.75;5035819;28;1384;-58
2021/05/16 03:30:26;;;;;;;;;;;;;;;22.61;47.04;100098.16;5035813;28;1470;-59
2021/05/16 03:32:51;;;;;;;;;;;;;;;22.46;47.57;100097.56;5035343;28;1112;-59
2021/05/16 03:35:17;;;;;;;;;;;;;;;22.36;47.73;100084.06;5036337;28;795;-58
2021/05/16 03:37:42;;;;;;;;;;;;;;;22.36;47.17;100090.41;5035999;28;1918;-58
2021/05/16 03:40:08;;;;;;;;;;;;;;;22.13;47.09;100078.72;5036187;28;1032;-58
2021/05/16 03:42:34;;;;;;;;;;;;;;;21.85;47.33;100089.31;5035820;28;1014;-58
2021/05/16 03:44:59;;;;;;;;;;;;;;;21.77;47.12;100093.72;5035891;28;728;-57
2021/05/16 03:47:25;;;;;;;;;;;;;;;21.75;47.17;100093.22;5036386;28;760;-58
2021/05/16 03:49:50;;;;;;;;;;;;;;;21.95;47.16;100090.94;5036498;28;768;-56
2021/05/16 03:52:19;;;;;;;;;;;;;;;22.05;47.59;100085.09;5035895;28;768;-57
2021/05/16 03:54:45;;;;;;;;;;;;;;;22.06;48.45;100083.91;5036630;28;828;-57
2021/05/16 03:57:11;;;;;;;;;;;;;;;22.00;48.74;100096.31;5035426;28;1992;-58
2021/05/16 03:59:36;;;;;;;;;;;;;;;22.13;48.62;100091.75;5035842;28;866;-60
2021/05/16 04:02:01;;;;;;;;;;;;;;;22.25;48.04;100102.16;5036366;28;800;-58
2021/05/16 04:04:27;;;;;;;;;;;;;;;22.22;48.01;100104.44;5036010;28;752;-58
2021/05/16 04:06:52;;;;;;;;;;;;;;;22.31;47.87;100109.13;5036080;28;771;-60
2021/05/16 04:09:18;;;;;;;;;;;;;;;22.38;47.49;100110.31;5036528;28;760;-57
2021/05/16 04:11:43;;;;;;;;;;;;;;;22.45;47.57;100107.00;5035338;28;1076;-58
2021/05/16 04:14:09;;;;;;;;;;;;;;;22.30;47.86;100118.59;5035838;28;832;-56
2021/05/16 04:16:34;;;;;;;;;;;;;;;22.32;47.82;100122.66;5035885;28;1972;-56
2021/05/16 04:18:59;;;;;;;;;;;;;;;22.26;47.87;100126.75;5036055;28;788;-58
2021/05/16 04:21:25;;;;;;;;;;;;;;;22.28;47.67;100130.00;5036063;28;773;-58
2021/05/16 04:23:50;;;;;;;;;;;;;;;22.39;47.41;100133.28;5035780;28;840;-58
2021/05/16 04:26:16;;;;;;;;;;;;;;;22.37;47.29;100139.16;5035545;28;930;-59
2021/05/16 04:28:41;;;;;;;;;;;;;;;22.50;47.17;100126.25;5035765;28;764;-58
2021/05/16 04:31:07;;;;;;;;;;;;;;;22.50;47.11;100120.69;5035966;28;745;-61
2021/05/16 04:33:32;;;;;;;;;;;;;;;22.33;47.50;100129.00;5036021;28;1175;-60
2021/05/16 04:35:58;;;;;;;;;;;;;;;22.37;47.87;100141.06;5037307;28;1973;-59
2021/05/16 04:38:24;;;;;;;;;;;;;;;22.43;47.51;100137.00;5038926;28;1080;-59
2021/05/16 04:40:49;;;;;;;;;;;;;;;22.57;47.03;100136.81;5039810;28;792;-59
2021/05/16 04:43:15;;;;;;;;;;;;;;;22.50;47.23;100140.09;5039385;28;1014;-59
2021/05/16 04:45:40;;;;;;;;;;;;;;;22.52;47.29;100140.56;5039055;28;898;-59
2021/05/16 04:48:06;;;;;;;;;;;;;;;22.45;47.59;100129.19;5038272;28;741;-61
2021/05/16 04:50:32;;;;;;;;;;;;;;;22.41;47.48;100113.56;5021537;28;1194;-59
2021/05/16 04:52:57;;;;;;;;;;;;;;;22.42;47.27;100107.69;5038877;28;549;-61
2021/05/16 04:55:23;;;;;;;;;;;;;;;22.03;48.59;100117.81;5021344;28;781;-60
2021/05/16 04:57:48;;;;;;;;;;;;;;;21.67;49.26;100127.22;5038604;28;1914;-57
2021/05/16 05:00:15;;;;;;;;;;;;;;;21.49;50.01;100115.28;5039151;28;756;-60
2021/05/16 05:02:41;;;;;;;;;;;;;;;21.85;48.90;100123.34;5039248;28;807;-59
2021/05/16 05:05:07;;;;;;;;;;;;;;;22.11;48.23;100128.06;5038557;28;868;-59
2021/05/16 05:07:32;;;;;;;;;;;;;;;22.17;47.93;100115.66;5038755;28;739;-59
2021/05/16 05:09:57;;;;;;;;;;;;;;;22.24;47.85;100117.94;5037804;28;1256;-60
2021/05/16 05:12:23;;;;;;;;;;;;;;;22.07;48.00;100112.44;5038518;28;959;-59
2021/05/16 05:14:48;;;;;;;;;;;;;;;22.08;47.31;100116.81;5038410;28;804;-60
2021/05/16 05:17:14;;;;;;;;;;;;;;;21.99;47.05;100112.13;5038176;28;1918;-48
2021/05/16 05:19:39;;;;;;;;;;;;;;;22.01;47.45;100120.91;5038762;28;760;-47
2021/05/16 05:22:05;;;;;;;;;;;;;;;22.18;47.79;100128.38;5038517;28;720;-51
2021/05/16 05:24:30;;;;;;;;;;;;;;;22.31;47.86;100134.06;5038793;28;732;-51
2021/05/16 05:26:55;;;;;;;;;;;;;;;22.37;47.67;100133.59;5038067;28;900;-47
2021/05/16 05:29:21;;;;;;;;;;;;;;;22.51;47.38;100141.72;5038714;28;739;-58
2021/05/16 05:31:46;;;;;;;;;;;;;;;22.50;47.24;100137.31;5038722;28;736;-51
2021/05/16 05:34:12;;;;;;;;;;;;;;;22.53;47.38;100136.66;5038662;28;1119;-56
2021/05/16 05:36:37;;;;;;;;;;;;;;;22.55;47.03;100137.16;5035681;28;1979;-48
2021/05/16 05:39:03;;;;;;;;;;;;;;;22.37;47.66;100138.31;5038031;28;1005;-57
2021/05/16 05:41:28;;;;;;;;;;;;;;;22.31;47.47;100134.06;5038071;28;966;-60
2021/05/16 05:43:54;;;;;;;;;;;;;;;22.10;47.64;100136.69;5038493;28;780;-58
2021/05/16 05:46:19;;;;;;;;;;;;;;;22.24;46.74;100147.59;5038580;28;736;-51
2021/05/16 05:48:45;;;;;;;;;;;;;;;22.06;46.80;100139.28;5037613;28;815;-58
2021/05/16 05:51:10;;;;;;;;;;;;;;;22.03;46.60;100134.41;5037934;28;788;-48
2021/05/16 05:53:36;;;;;;;;;;;;;;;21.89;47.20;100129.03;5038461;28;789;-62
2021/05/16 05:56:02;;;;;;;;;;;;;;;22.00;47.77;100132.31;5037825;28;1911;-52
2021/05/16 05:58:32;;;;;;;;;;;;;;;22.10;48.31;100134.72;5037381;28;998;-48
2021/05/16 06:00:58;;;;;;;;;;;;;;;22.03;48.79;100137.19;5020554;28;1285;-49
2021/05/16 06:03:23;;;;;;;;;;;;;;;22.12;48.28;100137.16;5038040;28;744;-49
2021/05/16 06:05:48;;;;;;;;;;;;;;;22.35;47.74;100132.31;5037596;28;807;-53
2021/05/16 06:08:15;;;;;;;;;;;;;;;22.47;47.37;100132.44;5038630;28;795;-59
2021/05/16 06:10:41;;;;;;;;;;;;;;;22.39;47.50;100133.28;5037316;28;821;-56
2021/05/16 06:13:06;;;;;;;;;;;;;;;22.37;47.57;100141.91;5037024;28;991;-51
2021/05/16 06:15:31;;;;;;;;;;;;;;;22.50;47.17;100129.00;5037931;28;832;-55
2021/05/16 06:17:57;;;;;;;;;;;;;;;22.51;47.41;100127.03;5038057;28;1914;-50
2021/05/16 06:20:22;;;;;;;;;;;;;;;22.67;46.78;100132.88;5037456;28;771;-52
2021/05/16 06:22:48;;;;;;;;;;;;;;;22.71;46.92;100136.63;5037513;28;748;-59
2021/05/16 06:25:13;;;;;;;;;;;;;;;22.61;47.03;100142.50;5037269;28;804;-58
2021/05/16 06:27:39;;;;;;;;;;;;;;;22.68;46.74;100149.19;5036178;28;931;-46
2021/05/16 06:30:04;;;;;;;;;;;;;;;22.62;47.15;100149.69;5037441;28;823;-46
2021/05/16 06:32:30;;;;;;;;;;;;;;;22.54;47.17;100160.47;5037482;28;1115;-59
2021/05/16 06:34:55;;;;;;;;;;;;;;;22.11;48.23;100163.25;5037010;28;819;-59
2021/05/16 06:37:21;;;;;;;;;;;;;;;21.86;48.90;100169.25;5019420;28;1918;-60
2021/05/16 06:39:46;;;;;;;;;;;;;;;21.65;48.63;100173.78;5037222;28;1519;-47
2021/05/16 06:42:12;;;;;;;;;;;;;;;21.82;49.40;100171.03;5035891;28;857;-46
2021/05/16 06:44:37;;;;;;;;;;;;;;;22.15;48.23;100164.22;5037135;28;806;-59
2021/05/16 06:47:02;;;;;;;;;;;;;;;22.36;47.70;100167.19;5037317;28;744;-46
2021/05/16 06:49:28;;;;;;;;;;;;;;;22.53;47.24;100155.25;5036834;28;783;-58
2021/05/16 06:51:53;;;;;;;;;;;;;;;22.59;47.12;100159.47;5037241;28;779;-48
2021/05/16 06:54:19;;;;;;;;;;;;;;;22.80;46.71;100173.41;5037222;28;824;-48
2021/05/16 06:56:44;;;;;;;;;;;;;;;22.29;47.90;100175.94;5035677;28;1913;-54
2021/05/16 06:59:09;;;;;;;;;;;;;;;22.20;48.15;100170.41;5034867;28;847;-58
2021/05/16 07:01:35;;;;;;;;;;;;;;;21.83;48.01;100175.44;5036960;28;1040;-58
2021/05/16 07:04:00;;;;;;;;;;;;;;;21.67;49.83;100177.03;5036894;28;851;-57
2021/05/16 07:06:26;;;;;;;;;;;;;;;22.04;48.58;100177.56;5036463;28;756;-50
2021/05/16 07:08:51;;;;;;;;;;;;;;;22.40;47.86;100176.47;5037391;28;791;-47
2021/05/16 07:11:17;;;;;;;;;;;;;;;22.48;47.54;100186.72;5036097;28;946;-52
2021/05/16 07:13:42;;;;;;;;;;;;;;;22.64;46.96;100186.19;5035795;28;856;-60
2021/05/16 07:16:07;;;;;;;;;;;;;;;22.27;47.93;100183.75;5036609;28;1913;-47
2021/05/16 07:18:33;;;;;;;;;;;;;;;22.17;48.09;100190.44;5036591;28;780;-47
2021/05/16 07:20:58;;;;;;;;;;;;;;;21.85;47.81;100184.25;5036452;28;835;-59
2021/05/16 07:23:24;;;;;;;;;;;;;;;21.77;49.50;100179.50;5036689;28;795;-58
2021/05/16 07:25:49;;;;;;;;;;;;;;;22.09;48.59;100184.91;5036434;28;756;-47
2021/05/16 07:28:15;;;;;;;;;;;;;;;22.47;47.43;100198.09;5035884;28;959;-46
2021/05/16 07:30:40;;;;;;;;;;;;;;;22.70;47.00;100207.03;5036527;28;764;-59
2021/05/16 07:33:06;;;;;;;;;;;;;;;22.15;48.35;100201.03;5036455;28;1175;-58
2021/05/16 07:35:31;;;;;;;;;;;;;;;22.26;48.14;100195.16;5036231;28;752;-49
2021/05/16 07:37:57;;;;;;;;;;;;;;;21.82;47.90;100201.47;5035573;28;1956;-59
2021/05/16 07:40:22;;;;;;;;;;;;;;;21.91;49.28;100198.75;5035194;28;772;-47
2021/05/16 07:42:50;;;;;;;;;;;;;;;22.22;48.34;100197.78;5035709;28;940;-51
2021/05/16 07:45:16;;;;;;;;;;;;;;;22.41;47.71;100197.47;5035747;28;838;-57
2021/05/16 07:47:41;;;;;;;;;;;;;;;22.60;47.34;100193.53;5036345;28;720;-55
2021/05/16 07:50:07;;;;;;;;;;;;;;;22.74;47.06;100191.38;5036185;28;924;-56
2021/05/16 07:52:32;;;;;;;;;;;;;;;22.47;47.80;100187.84;5036425;28;764;-53
2021/05/16 07:54:58;;;;;;;;;;;;;;;22.36;47.89;100187.38;5036340;28;744;-52
2021/05/16 07:57:23;;;;;;;;;;;;;;;22.03;47.42;100189.78;5035475;28;1906;-56
2021/05/16 07:59:49;;;;;;;;;;;;;;;21.78;49.81;100194.97;5036095;28;812;-53
2021/05/16 08:02:14;;;;;;;;;;;;;;;22.15;48.66;100189.16;5036565;28;810;-57
2021/05/16 08:04:40;;;;;;;;;;;;;;;22.41;48.05;100188.34;5035893;28;799;-55
2021/05/16 08:07:05;;;;;;;;;;;;;;;22.59;47.61;100180.81;5035100;28;1220;-56
2021/05/16 08:09:30;;;;;;;;;;;;;;;22.35;48.01;100180.19;5036530;28;771;-56
2021/05/16 08:11:56;;;;;;;;;;;;;;;22.26;48.14;100179.38;5038199;28;915;-57
2021/05/16 08:14:21;;;;;;;;;;;;;;;21.99;47.38;100180.50;5040421;28;804;-52
2021/05/16 08:16:47;;;;;;;;;;;;;;;22.00;49.06;100176.59;5054835;28;1976;-51
2021/05/16 08:19:12;;;;;;;;;;;;;;;22.25;48.38;100179.69;5039740;28;775;-56
2021/05/16 08:21:38;;;;;;;;;;;;;;;22.56;47.59;100174.78;5040246;28;792;-50
2021/05/16 08:24:04;;;;;;;;;;;;;;;22.32;48.00;100172.50;5040007;28;776;-58
2021/05/16 08:26:29;;;;;;;;;;;;;;;22.30;48.26;100171.22;5038784;28;990;-58
2021/05/16 08:28:55;;;;;;;;;;;;;;;21.97;47.63;100161.44;5038882;28;847;-56
2021/05/16 08:31:20;;;;;;;;;;;;;;;21.97;49.17;100163.41;5039753;28;823;-57
2021/05/16 08:33:45;;;;;;;;;;;;;;;22.30;48.38;100165.66;5039452;28;1111;-57
2021/05/16 08:36:11;;;;;;;;;;;;;;;22.45;47.72;100156.88;5039674;28;1918;-53
2021/05/16 08:38:36;;;;;;;;;;;;;;;22.31;48.24;100156.22;5039498;28;996;-54
2021/05/16 08:41:02;;;;;;;;;;;;;;;22.25;48.16;100157.53;5039243;28;951;-51
2021/05/16 08:43:27;;;;;;;;;;;;;;;22.15;47.67;100153.16;5039282;28;950;-57
2021/05/16 08:45:53;;;;;;;;;;;;;;;21.82;48.29;100151.66;5039442;28;768;-50
2021/05/16 08:48:18;;;;;;;;;;;;;;;22.02;49.14;100166.84;5039221;28;871;-58
2021/05/16 08:50:44;;;;;;;;;;;;;;;22.41;47.91;100163.41;5038786;28;884;-59
2021/05/16 08:53:09;;;;;;;;;;;;;;;22.43;47.99;100159.19;5038369;28;829;-47
2021/05/16 08:55:37;;;;;;;;;;;;;;;22.33;48.10;100157.56;5039000;28;491;-60
2021/05/16 08:58:03;;;;;;;;;;;;;;;22.30;47.63;100149.88;5038659;28;1969;-46
2021/05/16 09:00:29;;;;;;;;;;;;;;;21.79;47.18;100157.84;5039135;28;748;-57
2021/05/16 09:03:05;;;;;;;;;;;;;;;21.75;49.77;100145.81;5038958;28;799;-52
2021/05/16 09:05:36;;;;;;;;;;;;;;;22.20;48.63;100139.94;5039161;28;859;-53
2021/05/16 09:08:05;;;;;;;;;;;;;;;22.53;47.68;100141.41;5039133;28;854;-58
2021/05/16 09:10:31;;;;;;;;;;;;;;;22.23;48.47;100144.00;5038685;28;815;-58
2021/05/16 09:13:12;;;;;;;;;;;;;;;22.22;48.76;100143.19;5038468;28;907;-57
2021/05/16 09:15:37;;;;;;;;;;;;;;;22.18;47.43;100138.66;5038973;28;711;-49
2021/05/16 09:18:03;;;;;;;;;;;;;;;21.84;48.05;100132.00;5037877;28;1914;-51
2021/05/16 09:20:28;;;;;;;;;;;;;;;21.86;49.73;100144.34;5038818;28;792;-58
2021/05/16 09:22:54;;;;;;;;;;;;;;;22.24;48.86;100137.31;5037299;28;873;-50
2021/05/16 09:25:21;;;;;;;;;;;;;;;22.43;48.30;100138.94;5038641;28;783;-48
2021/05/16 09:27:50;;;;;;;;;;;;;;;22.26;48.56;100137.00;5038236;28;911;-51
2021/05/16 09:30:16;;;;;;;;;;;;;;;22.37;48.38;100127.22;5038854;28;768;-54
2021/05/16 09:32:53;;;;;;;;;;;;;;;21.98;47.17;100132.63;5038313;28;1159;-49
2021/05/16 09:35:27;;;;;;;;;;;;;;;21.91;48.70;100131.47;5038160;28;776;-51
2021/05/16 09:37:56;;;;;;;;;;;;;;;22.04;50.12;100130.50;5037447;28;1906;-53
2021/05/16 09:40:22;;;;;;;;;;;;;;;22.37;48.99;100127.22;5038197;28;744;-60
2021/05/16 09:42:49;;;;;;;;;;;;;;;22.34;49.02;100122.34;5037788;28;979;-53
2021/05/16 09:45:14;;;;;;;;;;;;;;;22.33;48.96;100120.69;5037391;28;775;-48
2021/05/16 09:47:40;;;;;;;;;;;;;;;22.29;48.01;100119.75;5037589;28;796;-58
2021/05/16 09:50:06;;;;;;;;;;;;;;;21.99;47.25;100119.59;5020185;28;824;-59
2021/05/16 09:52:32;;;;;;;;;;;;;;;21.89;50.63;100117.97;5020058;28;887;-58
2021/05/16 09:55:07;;;;;;;;;;;;;;;22.30;49.20;100118.59;5035908;28;945;-47
2021/05/16 09:57:36;;;;;;;;;;;;;;;22.42;48.70;100110.44;5037552;28;1917;-47
2021/05/16 10:00:03;;;;;;;;;;;;;;;22.42;48.89;100109.66;5036836;28;784;-56
2021/05/16 10:02:29;;;;;;;;;;;;;;;22.12;49.41;100118.63;5037217;28;634;-58
2021/05/16 10:04:55;;;;;;;;;;;;;;;21.95;48.59;100104.78;5038130;28;511;-49
2021/05/16 10:07:22;;;;;;;;;;;;;;;21.94;50.38;100098.44;5037960;28;792;-57
2021/05/16 10:09:48;;;;;;;;;;;;;;;22.27;49.14;100097.09;5037517;28;752;-46
2021/05/16 10:12:13;;;;;;;;;;;;;;;22.48;48.48;100100.00;5036006;28;931;-43
2021/05/16 10:14:39;;;;;;;;;;;;;;;22.32;48.83;100092.19;5053274;28;1448;-56
2021/05/16 10:17:05;;;;;;;;;;;;;;;22.46;48.39;100089.25;5037390;28;1989;-45
2021/05/16 10:19:35;;;;;;;;;;;;;;;22.02;48.28;100099.56;5053295;28;795;-59
2021/05/16 10:22:07;;;;;;;;;;;;;;;21.90;50.18;100093.91;5052987;28;795;-59
2021/05/16 10:24:36;;;;;;;;;;;;;;;22.22;49.32;100087.00;5037717;28;807;-60
2021/05/16 10:27:14;;;;;;;;;;;;;;;22.52;48.26;100082.38;5020700;28;880;-50
2021/05/16 10:29:59;;;;;;;;;;;;;;;22.17;49.39;100081.63;5037215;28;799;-59
2021/05/16 10:32:26;;;;;;;;;;;;;;;22.25;48.73;100078.03;5036875;28;1715;-59
2021/05/16 10:34:57;;;;;;;;;;;;;;;21.91;48.43;100076.13;5034503;28;837;-50
2021/05/16 10:37:33;;;;;;;;;;;;;;;22.02;49.87;100077.41;5037516;28;1910;-59
2021/05/16 10:39:58;;;;;;;;;;;;;;;22.30;48.89;100071.50;5036786;28;1036;-53
2021/05/16 10:42:31;;;;;;;;;;;;;;;22.26;48.91;100070.53;5036517;28;1002;-60
2021/05/16 10:45:03;;;;;;;;;;;;;;;22.29;48.88;100069.91;5037361;28;748;-47
2021/05/16 10:47:40;;;;;;;;;;;;;;;22.11;48.60;100074.66;5037099;28;820;-46
2021/05/16 10:50:06;;;;;;;;;;;;;;;21.78;49.90;100083.47;5037097;28;826;-57
2021/05/16 10:52:32;;;;;;;;;;;;;;;22.05;49.64;100068.47;5036490;28;736;-49
2021/05/16 10:54:57;;;;;;;;;;;;;;;22.35;48.93;100063.84;5037160;28;814;-45
2021/05/16 10:57:26;;;;;;;;;;;;;;;22.41;48.52;100066.47;5034954;28;1914;-51
2021/05/16 10:59:51;;;;;;;;;;;;;;;22.32;48.74;100064.50;5035976;28;1402;-49
2021/05/16 11:02:35;;;;;;;;;;;;;;;22.33;48.04;100059.75;5036830;28;812;-53
2021/05/16 11:05:01;;;;;;;;;;;;;;;21.90;48.90;100055.94;5035013;28;857;-57
2021/05/16 11:07:32;;;;;;;;;;;;;;;22.14;49.39;100051.84;5035448;28;1106;-57
2021/05/16 11:10:17;;;;;;;;;;;;;;;22.42;48.58;100052.28;5035550;28;1111;-58
2021/05/16 11:12:42;;;;;;;;;;;;;;;22.39;48.45;100052.94;5035531;28;1047;-58
2021/05/16 11:15:08;;;;;;;;;;;;;;;22.28;48.84;100057.19;5035624;28;1023;-57
2021/05/16 11:17:33;;;;;;;;;;;;;;;22.09;48.31;100050.06;5034957;28;1985;-56
2021/05/16 11:19:59;;;;;;;;;;;;;;;21.93;48.40;100046.19;5034693;28;1115;-56
2021/05/16 11:22:24;;;;;;;;;;;;;;;22.05;49.65;100038.03;5035638;28;1214;-57
2021/05/16 11:24:50;;;;;;;;;;;;;;;22.40;48.71;100046.28;5034792;28;779;-58
2021/05/16 11:27:26;;;;;;;;;;;;;;;22.38;48.41;100041.06;5036278;28;1016;-53
2021/05/16 11:29:52;;;;;;;;;;;;;;;21.95;49.57;100043.88;5035794;28;892;-56
2021/05/16 11:32:27;;;;;;;;;;;;;;;21.61;49.91;100040.81;5035981;28;1135;-55
2021/05/16 11:35:00;;;;;;;;;;;;;;;21.79;50.07;100040.81;5036877;28;744;-48
2021/05/16 11:37:25;;;;;;;;;;;;;;;22.10;49.17;100035.06;5036057;28;1971;-56
2021/05/16 11:39:51;;;;;;;;;;;;;;;22.29;48.86;100031.13;5035661;28;1163;-52
2021/05/16 11:42:31;;;;;;;;;;;;;;;22.29;48.60;100031.13;5034648;28;948;-50
2021/05/16 11:44:57;;;;;;;;;;;;;;;22.30;48.69;100035.50;5036766;28;744;-56
2021/05/16 11:47:35;;;;;;;;;;;;;;;22.51;48.04;100038.38;5042058;28;811;-53
2021/05/16 11:50:01;;;;;;;;;;;;;;;22.44;48.22;100027.00;5042444;28;788;-58
2021/05/16 11:52:26;;;;;;;;;;;;;;;22.43;48.26;100026.22;5042582;28;813;-58
2021/05/16 11:54:52;;;;;;;;;;;;;;;22.39;48.36;100023.28;5042208;28;732;-55
2021/05/16 11:57:20;;;;;;;;;;;;;;;22.53;47.78;100028.59;5042409;28;1985;-56
2021/05/16 11:59:46;;;;;;;;;;;;;;;22.49;48.04;100019.31;5042830;28;803;-57
2021/05/16 12:02:11;;;;;;;;;;;;;;;22.44;48.31;100016.75;5040323;28;887;-56
2021/05/16 12:04:38;;;;;;;;;;;;;;;22.39;48.21;100014.16;5042876;28;748;-54
2021/05/16 12:07:04;;;;;;;;;;;;;;;22.53;47.92;100008.41;5041805;28;836;-54
2021/05/16 12:09:29;;;;;;;;;;;;;;;22.49;48.01;100005.47;5042098;28;792;-54
2021/05/16 12:11:55;;;;;;;;;;;;;;;22.51;48.07;99999.59;5045186;28;1255;-47
2021/05/16 12:14:21;;;;;;;;;;;;;;;22.52;48.05;99988.19;5041927;28;1161;-48
2021/05/16 12:16:51;;;;;;;;;;;;;;;22.55;47.91;99990.31;5057447;28;1910;-49
2021/05/16 12:19:23;;;;;;;;;;;;;;;22.67;47.55;99986.81;5041249;28;696;-52
2021/05/16 12:21:50;;;;;;;;;;;;;;;22.63;47.58;99990.59;5042825;28;783;-46
2021/05/16 12:24:16;;;;;;;;;;;;;;;22.60;47.73;99978.22;5042085;28;795;-54
2021/05/16 12:26:41;;;;;;;;;;;;;;;22.68;47.49;99973.78;5056321;28;1303;-56
2021/05/16 12:29:06;;;;;;;;;;;;;;;22.77;47.27;99973.72;5042466;28;807;-53
2021/05/16 12:31:32;;;;;;;;;;;;;;;22.47;48.03;99963.47;5057386;28;1045;-47
2021/05/16 12:34:01;;;;;;;;;;;;;;;22.26;48.60;99970.84;5041690;28;1214;-47
2021/05/16 12:36:27;;;;;;;;;;;;;;;22.11;48.64;99964.72;5042283;28;1905;-47
2021/05/16 12:38:53;;;;;;;;;;;;;;;21.74;50.02;99961.56;5042033;28;997;-46
2021/05/16 12:41:21;;;;;;;;;;;;;;;22.08;48.95;99957.06;5040835;28;1041;-54
2021/05/16 12:44:06;;;;;;;;;;;;;;;22.36;48.40;99953.91;5056782;28;779;-46
2021/05/16 12:46:38;;;;;;;;;;;;;;;22.61;47.72;99956.84;5057560;28;819;-59
2021/05/16 12:49:04;;;;;;;;;;;;;;;22.50;47.79;99959.22;5041907;28;790;-57
2021/05/16 12:51:29;;;;;;;;;;;;;;;22.49;48.17;99952.03;5041934;28;732;-45